sensor_id;sensor_type;location;lat;lon;timestamp;pressure;altitude;pressure_sealevel;temperature;humidity
69751;BME280;57335;52.288;6.056;2022-12-04T00:00:12;101981.50;;;-0.22;91.04
69751;BME280;57335;52.288;6.056;2022-12-04T00:02:39;101969.69;;;-0.25;90.83
69751;BME280;57335;52.288;6.056;2022-12-04T00:05:08;101989.66;;;-0.15;90.69
69751;BME280;57335;52.288;6.056;2022-12-04T00:07:34;101982.84;;;-0.16;91.21
69751;BME280;57335;52.288;6.056;2022-12-04T00:10:01;101982.84;;;-0.16;90.96
69751;BME280;57335;52.288;6.056;2022-12-04T00:12:27;101985.00;;;-0.10;91.38
69751;BME280;57335;52.288;6.056;2022-12-04T00:14:53;101964.22;;;-0.20;91.23
69751;BME280;57335;52.288;6.056;2022-12-04T00:17:40;101971.38;;;-0.12;91.33
69751;BME280;57335;52.288;6.056;2022-12-04T00:20:07;101961.22;;;-0.14;90.67
69751;BME280;57335;52.288;6.056;2022-12-04T00:22:33;101975.19;;;-0.05;90.63
69751;BME280;57335;52.288;6.056;2022-12-04T00:24:59;101967.78;;;-0.10;91.25
69751;BME280;57335;52.288;6.056;2022-12-04T00:27:26;101961.78;;;-0.10;91.59
69751;BME280;57335;52.288;6.056;2022-12-04T00:29:52;101950.06;;;-0.14;91.26
69751;BME280;57335;52.288;6.056;2022-12-04T00:32:19;101956.88;;;-0.13;92.14
69751;BME280;57335;52.288;6.056;2022-12-04T00:34:45;101952.44;;;-0.11;91.79
69751;BME280;57335;52.288;6.056;2022-12-04T00:37:12;101953.25;;;-0.11;91.51
69751;BME280;57335;52.288;6.056;2022-12-04T00:39:38;101950.28;;;-0.17;91.56
69751;BME280;57335;52.288;6.056;2022-12-04T00:42:04;101949.97;;;-0.13;91.62
69751;BME280;57335;52.288;6.056;2022-12-04T00:44:31;101941.53;;;-0.15;91.27
69751;BME280;57335;52.288;6.056;2022-12-04T00:46:57;101972.63;;;-0.05;91.47
69751;BME280;57335;52.288;6.056;2022-12-04T00:49:23;101958.50;;;-0.12;91.62
69751;BME280;57335;52.288;6.056;2022-12-04T00:51:50;101958.31;;;-0.09;91.35
69751;BME280;57335;52.288;6.056;2022-12-04T00:54:16;101959.66;;;-0.16;92.23
69751;BME280;57335;52.288;6.056;2022-12-04T00:56:42;101968.94;;;-0.14;91.65
69751;BME280;57335;52.288;6.056;2022-12-04T00:59:09;101954.72;;;-0.19;91.55
69751;BME280;57335;52.288;6.056;2022-12-04T01:01:35;101975.28;;;-0.07;91.71
69751;BME280;57335;52.288;6.056;2022-12-04T01:04:02;101969.44;;;-0.09;91.49
69751;BME280;57335;52.288;6.056;2022-12-04T01:06:30;101970.25;;;-0.08;91.78
69751;BME280;57335;52.288;6.056;2022-12-04T01:08:58;101958.75;;;-0.15;91.96
69751;BME280;57335;52.288;6.056;2022-12-04T01:11:26;101967.19;;;-0.13;91.81
69751;BME280;57335;52.288;6.056;2022-12-04T01:13:54;101962.84;;;-0.13;91.84
69751;BME280;57335;52.288;6.056;2022-12-04T01:16:23;101963.78;;;-0.14;91.97
69751;BME280;57335;52.288;6.056;2022-12-04T01:18:50;101970.47;;;-0.11;91.52
69751;BME280;57335;52.288;6.056;2022-12-04T01:21:17;101961.94;;;-0.12;91.53
69751;BME280;57335;52.288;6.056;2022-12-04T01:23:44;101976.09;;;-0.06;92.05
69751;BME280;57335;52.288;6.056;2022-12-04T01:26:11;101965.59;;;-0.03;91.76
69751;BME280;57335;52.288;6.056;2022-12-04T01:28:38;101948.91;;;-0.10;91.88
69751;BME280;57335;52.288;6.056;2022-12-04T01:31:08;101954.06;;;-0.10;91.62
69751;BME280;57335;52.288;6.056;2022-12-04T01:33:36;101962.31;;;-0.05;91.86
69751;BME280;57335;52.288;6.056;2022-12-04T01:36:05;101952.19;;;-0.08;91.38
69751;BME280;57335;52.288;6.056;2022-12-04T01:38:32;101950.25;;;-0.05;91.57
69751;BME280;57335;52.288;6.056;2022-12-04T01:40:59;101953.06;;;-0.08;91.86
69751;BME280;57335;52.288;6.056;2022-12-04T01:43:27;101971.47;;;-0.01;91.65
69751;BME280;57335;52.288;6.056;2022-12-04T01:45:55;101959.50;;;-0.02;91.78
69751;BME280;57335;52.288;6.056;2022-12-04T01:48:32;101956.00;;;-0.01;92.11
69751;BME280;57335;52.288;6.056;2022-12-04T01:51:09;101958.59;;;-0.01;92.07
69751;BME280;57335;52.288;6.056;2022-12-04T01:53:41;101951.66;;;-0.01;92.15
69751;BME280;57335;52.288;6.056;2022-12-04T01:56:09;101948.00;;;-0.09;92.47
69751;BME280;57335;52.288;6.056;2022-12-04T01:58:40;101948.63;;;-0.06;92.33
69751;BME280;57335;52.288;6.056;2022-12-04T02:01:07;101929.69;;;-0.17;92.25
69751;BME280;57335;52.288;6.056;2022-12-04T02:03:35;101948.00;;;-0.09;92.78
69751;BME280;57335;52.288;6.056;2022-12-04T02:06:02;101936.25;;;-0.13;92.98
69751;BME280;57335;52.288;6.056;2022-12-04T02:08:28;101958.06;;;-0.06;93.14
69751;BME280;57335;52.288;6.056;2022-12-04T02:11:08;101953.16;;;-0.09;93.17
69751;BME280;57335;52.288;6.056;2022-12-04T02:19:00;101949.03;;;-0.12;92.59
69751;BME280;57335;52.288;6.056;2022-12-04T02:21:37;101950.34;;;-0.06;93.05
69751;BME280;57335;52.288;6.056;2022-12-04T02:27:06;101949.63;;;-0.08;93.09
69751;BME280;57335;52.288;6.056;2022-12-04T02:29:37;101944.09;;;-0.15;92.95
69751;BME280;57335;52.288;6.056;2022-12-04T02:34:42;101941.63;;;-0.16;93.03
69751;BME280;57335;52.288;6.056;2022-12-04T02:37:22;101955.72;;;-0.09;93.34
69751;BME280;57335;52.288;6.056;2022-12-04T02:39:55;101940.38;;;-0.11;93.54
69751;BME280;57335;52.288;6.056;2022-12-04T02:44:59;101932.38;;;-0.19;93.71
69751;BME280;57335;52.288;6.056;2022-12-04T02:47:28;101931.66;;;-0.21;93.71
69751;BME280;57335;52.288;6.056;2022-12-04T02:49:59;101923.81;;;-0.19;93.87
69751;BME280;57335;52.288;6.056;2022-12-04T02:52:31;101926.41;;;-0.19;94.03
69751;BME280;57335;52.288;6.056;2022-12-04T02:55:04;101920.28;;;-0.18;93.84
69751;BME280;57335;52.288;6.056;2022-12-04T02:57:36;101934.59;;;-0.14;94.13
69751;BME280;57335;52.288;6.056;2022-12-04T03:00:06;101928.88;;;-0.18;94.34
69751;BME280;57335;52.288;6.056;2022-12-04T03:02:39;101929.88;;;-0.21;93.98
69751;BME280;57335;52.288;6.056;2022-12-04T03:05:14;101923.91;;;-0.21;94.06
69751;BME280;57335;52.288;6.056;2022-12-04T03:07:46;101917.34;;;-0.25;94.49
69751;BME280;57335;52.288;6.056;2022-12-04T03:10:19;101925.34;;;-0.17;94.25
69751;BME280;57335;52.288;6.056;2022-12-04T03:13:02;101911.38;;;-0.26;93.95
69751;BME280;57335;52.288;6.056;2022-12-04T03:15:44;101922.78;;;-0.17;94.25
69751;BME280;57335;52.288;6.056;2022-12-04T03:18:21;101935.13;;;-0.09;94.30
69751;BME280;57335;52.288;6.056;2022-12-04T03:20:55;101923.59;;;-0.16;94.07
69751;BME280;57335;52.288;6.056;2022-12-04T03:23:47;101924.00;;;-0.10;94.40
69751;BME280;57335;52.288;6.056;2022-12-04T03:26:26;101915.75;;;-0.15;94.21
69751;BME280;57335;52.288;6.056;2022-12-04T03:29:08;101930.88;;;-0.10;94.01
69751;BME280;57335;52.288;6.056;2022-12-04T03:31:46;101911.66;;;-0.17;93.74
69751;BME280;57335;52.288;6.056;2022-12-04T03:34:22;101922.56;;;-0.14;94.25
69751;BME280;57335;52.288;6.056;2022-12-04T03:36:55;101930.16;;;-0.12;94.65
69751;BME280;57335;52.288;6.056;2022-12-04T03:39:38;101928.63;;;-0.15;94.49
69751;BME280;57335;52.288;6.056;2022-12-04T03:42:17;101922.78;;;-0.17;94.97
69751;BME280;57335;52.288;6.056;2022-12-04T03:45:11;101906.09;;;-0.24;94.63
69751;BME280;57335;52.288;6.056;2022-12-04T03:47:48;101914.94;;;-0.15;94.57
69751;BME280;57335;52.288;6.056;2022-12-04T03:50:34;101909.28;;;-0.21;94.27
69751;BME280;57335;52.288;6.056;2022-12-04T03:55:43;101912.28;;;-0.27;94.50
69751;BME280;57335;52.288;6.056;2022-12-04T03:58:15;101927.00;;;-0.16;95.12
69751;BME280;57335;52.288;6.056;2022-12-04T04:00:45;101925.97;;;-0.13;94.68
69751;BME280;57335;52.288;6.056;2022-12-04T04:03:16;101921.97;;;-0.17;95.01
69751;BME280;57335;52.288;6.056;2022-12-04T04:05:46;101917.41;;;-0.14;94.38
69751;BME280;57335;52.288;6.056;2022-12-04T04:08:17;101904.22;;;-0.22;94.53
69751;BME280;57335;52.288;6.056;2022-12-04T04:10:47;101903.75;;;-0.27;94.88
69751;BME280;57335;52.288;6.056;2022-12-04T04:13:17;101912.56;;;-0.18;94.77
69751;BME280;57335;52.288;6.056;2022-12-04T04:15:49;101917.50;;;-0.15;94.61
69751;BME280;57335;52.288;6.056;2022-12-04T04:18:16;101909.50;;;-0.24;94.97
69751;BME280;57335;52.288;6.056;2022-12-04T04:20:54;101922.44;;;-0.12;94.85
69751;BME280;57335;52.288;6.056;2022-12-04T04:23:25;101914.00;;;-0.14;94.34
69751;BME280;57335;52.288;6.056;2022-12-04T04:25:55;101909.28;;;-0.21;94.91
69751;BME280;57335;52.288;6.056;2022-12-04T04:28:41;101915.28;;;-0.20;94.80
69751;BME280;57335;52.288;6.056;2022-12-04T04:31:11;101920.56;;;-0.10;94.39
69751;BME280;57335;52.288;6.056;2022-12-04T04:41:42;101907.66;;;-0.22;94.83
69751;BME280;57335;52.288;6.056;2022-12-04T04:44:50;101909.63;;;-0.25;94.58
69751;BME280;57335;52.288;6.056;2022-12-04T04:47:19;101915.84;;;-0.16;94.80
69751;BME280;57335;52.288;6.056;2022-12-04T04:49:50;101907.13;;;-0.27;94.73
69751;BME280;57335;52.288;6.056;2022-12-04T04:52:19;101913.63;;;-0.21;94.51
69751;BME280;57335;52.288;6.056;2022-12-04T04:54:47;101919.75;;;-0.11;94.48
69751;BME280;57335;52.288;6.056;2022-12-04T04:57:24;101912.47;;;-0.17;94.75
69751;BME280;57335;52.288;6.056;2022-12-04T04:59:51;101908.25;;;-0.18;94.31
69751;BME280;57335;52.288;6.056;2022-12-04T05:02:17;101912.97;;;-0.12;94.39
69751;BME280;57335;52.288;6.056;2022-12-04T05:04:44;101915.03;;;-0.17;94.69
69751;BME280;57335;52.288;6.056;2022-12-04T05:07:10;101910.97;;;-0.08;94.33
69751;BME280;57335;52.288;6.056;2022-12-04T05:09:36;101914.00;;;-0.14;94.23
69751;BME280;57335;52.288;6.056;2022-12-04T05:12:06;101912.38;;;-0.15;94.73
69751;BME280;57335;52.288;6.056;2022-12-04T05:14:33;101926.66;;;-0.11;94.70
69751;BME280;57335;52.288;6.056;2022-12-04T05:16:59;101928.72;;;-0.04;94.44
69751;BME280;57335;52.288;6.056;2022-12-04T05:19:31;101924.69;;;-0.08;94.38
69751;BME280;57335;52.288;6.056;2022-12-04T05:21:57;101933.00;;;-0.04;94.58
69751;BME280;57335;52.288;6.056;2022-12-04T05:24:24;101936.53;;;-0.05;94.62
69751;BME280;57335;52.288;6.056;2022-12-04T05:26:50;101922.13;;;-0.08;94.42
69751;BME280;57335;52.288;6.056;2022-12-04T05:29:16;101929.72;;;-0.06;94.60
69751;BME280;57335;52.288;6.056;2022-12-04T05:31:43;101939.72;;;-0.02;94.74
69751;BME280;57335;52.288;6.056;2022-12-04T05:34:09;101922.94;;;-0.07;94.86
69751;BME280;57335;52.288;6.056;2022-12-04T05:36:35;101922.00;;;-0.06;94.92
69751;BME280;57335;52.288;6.056;2022-12-04T05:39:02;101922.13;;;-0.08;95.07
69751;BME280;57335;52.288;6.056;2022-12-04T05:41:28;101930.13;;;0.01;94.90
69751;BME280;57335;52.288;6.056;2022-12-04T05:43:55;101923.66;;;-0.05;94.87
69751;BME280;57335;52.288;6.056;2022-12-04T05:46:21;101930.03;;;0.02;95.27
69751;BME280;57335;52.288;6.056;2022-12-04T05:48:47;101923.41;;;-0.02;94.97
69751;BME280;57335;52.288;6.056;2022-12-04T05:51:14;101926.94;;;-0.03;95.05
69751;BME280;57335;52.288;6.056;2022-12-04T05:53:40;101918.72;;;-0.08;95.41
69751;BME280;57335;52.288;6.056;2022-12-04T05:56:07;101904.91;;;-0.07;95.24
69751;BME280;57335;52.288;6.056;2022-12-04T05:58:37;101919.94;;;-0.01;95.44
69751;BME280;57335;52.288;6.056;2022-12-04T06:01:22;101919.81;;;0.01;95.41
69751;BME280;57335;52.288;6.056;2022-12-04T06:03:49;101919.72;;;0.02;95.68
69751;BME280;57335;52.288;6.056;2022-12-04T06:06:18;101902.22;;;-0.06;95.08
69751;BME280;57335;52.288;6.056;2022-12-04T06:08:51;101903.97;;;-0.06;95.25
69751;BME280;57335;52.288;6.056;2022-12-04T06:11:20;101911.38;;;-0.02;95.36
69751;BME280;57335;52.288;6.056;2022-12-04T06:13:47;101911.38;;;-0.02;95.48
69751;BME280;57335;52.288;6.056;2022-12-04T06:16:23;101910.53;;;-0.02;95.36
69751;BME280;57335;52.288;6.056;2022-12-04T06:18:58;101921.25;;;0.05;95.24
69751;BME280;57335;52.288;6.056;2022-12-04T06:21:27;101913.72;;;0.02;95.15
69751;BME280;57335;52.288;6.056;2022-12-04T06:23:54;101928.16;;;0.04;95.57
69751;BME280;57335;52.288;6.056;2022-12-04T06:26:21;101928.88;;;0.06;95.60
69751;BME280;57335;52.288;6.056;2022-12-04T06:28:48;101924.88;;;0.02;95.71
69751;BME280;57335;52.288;6.056;2022-12-04T06:31:15;101920.63;;;0.01;95.54
69751;BME280;57335;52.288;6.056;2022-12-04T06:33:42;101925.34;;;0.07;95.37
69751;BME280;57335;52.288;6.056;2022-12-04T06:36:14;101928.03;;;0.06;95.70
69751;BME280;57335;52.288;6.056;2022-12-04T06:38:41;101924.44;;;0.08;95.55
69751;BME280;57335;52.288;6.056;2022-12-04T06:41:10;101919.94;;;-0.01;95.65
69751;BME280;57335;52.288;6.056;2022-12-04T06:43:37;101907.75;;;0.01;95.59
69751;BME280;57335;52.288;6.056;2022-12-04T06:46:06;101906.44;;;-0.05;95.78
69751;BME280;57335;52.288;6.056;2022-12-04T06:48:33;101905.50;;;-0.04;95.45
69751;BME280;57335;52.288;6.056;2022-12-04T06:51:01;101916.91;;;0.05;95.50
69751;BME280;57335;52.288;6.056;2022-12-04T06:53:28;101914.56;;;0.02;95.92
69751;BME280;57335;52.288;6.056;2022-12-04T06:55:56;101917.44;;;-0.03;95.96
69751;BME280;57335;52.288;6.056;2022-12-04T06:58:23;101927.31;;;0.04;95.89
69751;BME280;57335;52.288;6.056;2022-12-04T07:00:50;101922.28;;;0.02;95.57
69751;BME280;57335;52.288;6.056;2022-12-04T07:03:16;101919.13;;;-0.02;95.99
69751;BME280;57335;52.288;6.056;2022-12-04T07:05:43;101925.28;;;-0.04;96.82
69751;BME280;57335;52.288;6.056;2022-12-04T07:08:09;101925.91;;;-0.01;96.45
69751;BME280;57335;52.288;6.056;2022-12-04T07:10:36;101916.84;;;-0.06;96.35
69751;BME280;57335;52.288;6.056;2022-12-04T07:13:03;101931.16;;;-0.02;96.27
69751;BME280;57335;52.288;6.056;2022-12-04T07:15:31;101935.19;;;0.02;95.97
69751;BME280;57335;52.288;6.056;2022-12-04T07:17:58;101934.47;;;0.00;96.11
69751;BME280;57335;52.288;6.056;2022-12-04T07:20:25;101945.34;;;0.04;96.17
69751;BME280;57335;52.288;6.056;2022-12-04T07:22:51;101941.69;;;-0.05;96.67
69751;BME280;57335;52.288;6.056;2022-12-04T07:25:18;101947.56;;;-0.03;96.63
69751;BME280;57335;52.288;6.056;2022-12-04T07:27:44;101947.34;;;0.00;96.93
69751;BME280;57335;52.288;6.056;2022-12-04T07:30:11;101939.94;;;-0.05;96.40
69751;BME280;57335;52.288;6.056;2022-12-04T07:32:41;101939.31;;;-0.08;97.16
69751;BME280;57335;52.288;6.056;2022-12-04T07:35:07;101946.75;;;-0.04;97.16
69751;BME280;57335;52.288;6.056;2022-12-04T07:37:34;101947.22;;;0.02;96.73
69751;BME280;57335;52.288;6.056;2022-12-04T07:40:02;101935.94;;;-0.09;97.22
69751;BME280;57335;52.288;6.056;2022-12-04T07:42:28;101943.13;;;-0.01;97.85
69751;BME280;57335;52.288;6.056;2022-12-04T07:44:55;101951.56;;;0.01;97.72
69751;BME280;57335;52.288;6.056;2022-12-04T07:47:21;101938.16;;;-0.04;97.62
69751;BME280;57335;52.288;6.056;2022-12-04T07:49:47;101942.91;;;0.02;97.51
69751;BME280;57335;52.288;6.056;2022-12-04T07:52:13;101959.91;;;0.05;97.08
69751;BME280;57335;52.288;6.056;2022-12-04T07:54:40;101942.91;;;0.02;97.58
69751;BME280;57335;52.288;6.056;2022-12-04T07:57:06;101937.97;;;-0.01;97.11
69751;BME280;57335;52.288;6.056;2022-12-04T07:59:32;101943.63;;;0.04;97.73
69751;BME280;57335;52.288;6.056;2022-12-04T08:01:59;101936.44;;;-0.04;97.96
69751;BME280;57335;52.288;6.056;2022-12-04T08:04:25;101947.22;;;0.02;98.06
69751;BME280;57335;52.288;6.056;2022-12-04T08:06:52;101950.66;;;0.02;97.80
69751;BME280;57335;52.288;6.056;2022-12-04T08:09:18;101945.69;;;-0.01;97.97
69751;BME280;57335;52.288;6.056;2022-12-04T08:11:44;101952.06;;;0.06;98.00
69751;BME280;57335;52.288;6.056;2022-12-04T08:14:11;101945.25;;;0.05;97.46
69751;BME280;57335;52.288;6.056;2022-12-04T08:16:37;101957.69;;;0.11;97.39
69751;BME280;57335;52.288;6.056;2022-12-04T08:19:04;101939.66;;;0.11;96.76
69751;BME280;57335;52.288;6.056;2022-12-04T08:21:31;101946.69;;;0.09;97.65
69751;BME280;57335;52.288;6.056;2022-12-04T08:24:00;101944.44;;;0.05;97.73
69751;BME280;57335;52.288;6.056;2022-12-04T08:26:28;101956.78;;;0.12;97.75
69751;BME280;57335;52.288;6.056;2022-12-04T08:28:56;101951.84;;;0.09;97.57
69751;BME280;57335;52.288;6.056;2022-12-04T08:31:25;101965.22;;;0.14;97.51
69751;BME280;57335;52.288;6.056;2022-12-04T08:33:55;101973.44;;;0.19;97.66
69751;BME280;57335;52.288;6.056;2022-12-04T08:36:23;101969.34;;;0.17;97.26
69751;BME280;57335;52.288;6.056;2022-12-04T08:38:49;101978.59;;;0.19;97.02
69751;BME280;57335;52.288;6.056;2022-12-04T08:41:17;101981.78;;;0.23;97.03
69751;BME280;57335;52.288;6.056;2022-12-04T08:43:44;101962.91;;;0.23;96.71
69751;BME280;57335;52.288;6.056;2022-12-04T08:46:11;101986.59;;;0.28;95.99
69751;BME280;57335;52.288;6.056;2022-12-04T08:48:38;101975.91;;;0.21;96.37
69751;BME280;57335;52.288;6.056;2022-12-04T08:51:06;101960.66;;;0.18;96.31
69751;BME280;57335;52.288;6.056;2022-12-04T08:53:34;101971.38;;;0.25;96.30
69751;BME280;57335;52.288;6.056;2022-12-04T08:56:01;101970.84;;;0.19;96.24
69751;BME280;57335;52.288;6.056;2022-12-04T08:58:27;101977.22;;;0.27;96.14
69751;BME280;57335;52.288;6.056;2022-12-04T09:00:53;101970.56;;;0.24;95.65
69751;BME280;57335;52.288;6.056;2022-12-04T09:03:20;101962.91;;;0.23;95.96
69751;BME280;57335;52.288;6.056;2022-12-04T09:06:00;101974.41;;;0.30;95.63
69751;BME280;57335;52.288;6.056;2022-12-04T09:08:27;101970.56;;;0.24;96.33
69751;BME280;57335;52.288;6.056;2022-12-04T09:10:53;101968.06;;;0.23;96.24
69751;BME280;57335;52.288;6.056;2022-12-04T09:13:20;101964.56;;;0.24;96.68
69751;BME280;57335;52.288;6.056;2022-12-04T09:15:46;101969.72;;;0.24;96.84
69751;BME280;57335;52.288;6.056;2022-12-04T09:18:13;101984.09;;;0.39;95.92
69751;BME280;57335;52.288;6.056;2022-12-04T09:20:39;101968.56;;;0.28;95.59
69751;BME280;57335;52.288;6.056;2022-12-04T09:23:05;101972.91;;;0.27;96.01
69751;BME280;57335;52.288;6.056;2022-12-04T09:25:36;101969.72;;;0.24;96.52
69751;BME280;57335;52.288;6.056;2022-12-04T09:28:03;101977.72;;;0.32;95.52
69751;BME280;57335;52.288;6.056;2022-12-04T09:30:29;101964.34;;;0.27;95.34
69751;BME280;57335;52.288;6.056;2022-12-04T09:32:56;101976.91;;;0.31;94.50
69751;BME280;57335;52.288;6.056;2022-12-04T09:35:22;101978.47;;;0.45;93.96
69751;BME280;57335;52.288;6.056;2022-12-04T09:37:49;101980.56;;;0.40;93.66
69751;BME280;57335;52.288;6.056;2022-12-04T09:40:29;101975.41;;;0.40;94.22
69751;BME280;57335;52.288;6.056;2022-12-04T09:43:27;101987.75;;;0.48;94.25
69751;BME280;57335;52.288;6.056;2022-12-04T09:45:59;101977.66;;;0.45;93.91
69751;BME280;57335;52.288;6.056;2022-12-04T09:48:32;101990.81;;;0.53;93.63
69751;BME280;57335;52.288;6.056;2022-12-04T09:51:00;101990.94;;;0.51;94.52
69751;BME280;57335;52.288;6.056;2022-12-04T09:53:37;101963.22;;;0.42;93.81
69751;BME280;57335;52.288;6.056;2022-12-04T09:56:10;101984.72;;;0.54;93.79
69751;BME280;57335;52.288;6.056;2022-12-04T09:58:51;101983.34;;;0.61;93.32
69751;BME280;57335;52.288;6.056;2022-12-04T10:04:17;101975.09;;;0.56;93.61
69751;BME280;57335;52.288;6.056;2022-12-04T10:07:09;101976.16;;;0.53;93.95
69751;BME280;57335;52.288;6.056;2022-12-04T10:09:47;101967.38;;;0.56;93.45
69751;BME280;57335;52.288;6.056;2022-12-04T10:12:35;101969.75;;;0.59;93.89
69751;BME280;57335;52.288;6.056;2022-12-04T10:17:55;101967.75;;;0.63;93.57
69751;BME280;57335;52.288;6.056;2022-12-04T10:20:45;101970.09;;;0.66;93.17
69751;BME280;57335;52.288;6.056;2022-12-04T10:25:52;101953.19;;;0.62;93.14
69751;BME280;57335;52.288;6.056;2022-12-04T10:28:39;101964.72;;;0.69;93.21
69751;BME280;57335;52.288;6.056;2022-12-04T10:31:10;101957.69;;;0.71;92.63
69751;BME280;57335;52.288;6.056;2022-12-04T10:33:43;101971.53;;;0.70;92.17
69751;BME280;57335;52.288;6.056;2022-12-04T10:36:13;101970.34;;;0.74;92.16
69751;BME280;57335;52.288;6.056;2022-12-04T10:38:46;101961.19;;;0.70;92.20
69751;BME280;57335;52.288;6.056;2022-12-04T10:41:20;101977.53;;;0.82;91.90
69751;BME280;57335;52.288;6.056;2022-12-04T10:43:50;101957.69;;;0.71;92.19
69751;BME280;57335;52.288;6.056;2022-12-04T10:46:27;101966.75;;;0.76;92.63
69751;BME280;57335;52.288;6.056;2022-12-04T10:49:00;101959.34;;;0.83;92.00
69751;BME280;57335;52.288;6.056;2022-12-04T10:51:38;101962.41;;;0.77;92.34
69751;BME280;57335;52.288;6.056;2022-12-04T10:54:24;101960.97;;;0.73;92.09
69751;BME280;57335;52.288;6.056;2022-12-04T10:57:00;101961.94;;;0.83;91.60
69751;BME280;57335;52.288;6.056;2022-12-04T10:59:27;101950.88;;;0.70;92.26
69751;BME280;57335;52.288;6.056;2022-12-04T11:02:13;101963.00;;;0.81;92.63
69751;BME280;57335;52.288;6.056;2022-12-04T11:05:06;101948.78;;;0.75;92.28
69751;BME280;57335;52.288;6.056;2022-12-04T11:07:35;101946.81;;;0.78;92.53
69751;BME280;57335;52.288;6.056;2022-12-04T11:10:05;101935.53;;;0.79;92.62
69751;BME280;57335;52.288;6.056;2022-12-04T11:12:32;101942.81;;;0.86;92.12
69751;BME280;57335;52.288;6.056;2022-12-04T11:17:31;101951.88;;;0.91;92.75
69751;BME280;57335;52.288;6.056;2022-12-04T11:20:08;101948.56;;;0.89;92.39
69751;BME280;57335;52.288;6.056;2022-12-04T11:22:48;101936.50;;;0.90;92.40
69751;BME280;57335;52.288;6.056;2022-12-04T11:25:17;101932.38;;;0.87;93.20
69751;BME280;57335;52.288;6.056;2022-12-04T11:27:47;101933.09;;;0.89;92.30
69751;BME280;57335;52.288;6.056;2022-12-04T11:30:36;101930.28;;;0.92;92.23
69751;BME280;57335;52.288;6.056;2022-12-04T11:33:07;101946.72;;;1.03;92.30
69751;BME280;57335;52.288;6.056;2022-12-04T11:35:41;101946.72;;;1.03;92.29
69751;BME280;57335;52.288;6.056;2022-12-04T11:38:15;101930.75;;;0.97;92.66
69751;BME280;57335;52.288;6.056;2022-12-04T11:40:51;101942.50;;;1.02;93.18
69751;BME280;57335;52.288;6.056;2022-12-04T11:43:19;101933.34;;;1.09;92.93
69751;BME280;57335;52.288;6.056;2022-12-04T11:46:00;101928.53;;;1.04;93.34
69751;BME280;57335;52.288;6.056;2022-12-04T11:48:31;101923.84;;;1.09;92.49
69751;BME280;57335;52.288;6.056;2022-12-04T11:51:29;101921.75;;;1.14;92.89
69751;BME280;57335;52.288;6.056;2022-12-04T11:54:03;101908.69;;;1.16;92.16
69751;BME280;57335;52.288;6.056;2022-12-04T11:56:35;101915.63;;;1.04;92.76
69751;BME280;57335;52.288;6.056;2022-12-04T11:59:13;101910.94;;;1.21;92.22
69751;BME280;57335;52.288;6.056;2022-12-04T12:01:59;101900.72;;;1.19;92.25
69751;BME280;57335;52.288;6.056;2022-12-04T12:10:03;101890.41;;;1.19;92.13
69751;BME280;57335;52.288;6.056;2022-12-04T12:18:17;101878.66;;;1.15;91.95
69751;BME280;57335;52.288;6.056;2022-12-04T12:20:57;101885.13;;;1.09;92.05
69751;BME280;57335;52.288;6.056;2022-12-04T12:26:17;101883.34;;;1.21;92.00
69751;BME280;57335;52.288;6.056;2022-12-04T12:29:12;101884.66;;;1.15;92.74
69751;BME280;57335;52.288;6.056;2022-12-04T12:32:05;101896.75;;;1.15;92.70
69751;BME280;57335;52.288;6.056;2022-12-04T12:34:43;101896.25;;;1.21;92.64
69751;BME280;57335;52.288;6.056;2022-12-04T12:37:40;101883.47;;;1.19;93.19
69751;BME280;57335;52.288;6.056;2022-12-04T12:40:39;101883.72;;;1.16;93.59
69751;BME280;57335;52.288;6.056;2022-12-04T12:43:23;101869.75;;;1.19;93.55
69751;BME280;57335;52.288;6.056;2022-12-04T12:46:12;101866.56;;;1.15;93.90
69751;BME280;57335;52.288;6.056;2022-12-04T12:49:00;101873.84;;;1.22;93.75
69751;BME280;57335;52.288;6.056;2022-12-04T12:52:06;101863.88;;;1.17;94.74
69751;BME280;57335;52.288;6.056;2022-12-04T12:57:29;101859.03;;;1.24;94.27
69751;BME280;57335;52.288;6.056;2022-12-04T13:00:19;101844.84;;;1.18;93.64
69751;BME280;57335;52.288;6.056;2022-12-04T13:05:19;101863.41;;;1.23;94.14
69751;BME280;57335;52.288;6.056;2022-12-04T13:08:00;101849.31;;;1.16;94.15
69751;BME280;57335;52.288;6.056;2022-12-04T13:10:58;101855.66;;;1.23;94.25
69751;BME280;57335;52.288;6.056;2022-12-04T13:13:23;101854.13;;;1.21;94.81
69751;BME280;57335;52.288;6.056;2022-12-04T13:15:55;101852.97;;;1.25;94.73
69751;BME280;57335;52.288;6.056;2022-12-04T13:18:26;101853.28;;;1.31;93.97
69751;BME280;57335;52.288;6.056;2022-12-04T13:20:56;101851.88;;;1.38;93.60
69751;BME280;57335;52.288;6.056;2022-12-04T13:34:48;101848.59;;;1.36;93.94
69751;BME280;57335;52.288;6.056;2022-12-04T13:42:40;101828.97;;;1.34;93.91
69751;BME280;57335;52.288;6.056;2022-12-04T13:45:12;101835.00;;;1.34;94.29
69751;BME280;57335;52.288;6.056;2022-12-04T13:48:01;101850.22;;;1.37;93.96
69751;BME280;57335;52.288;6.056;2022-12-04T13:50:33;101830.75;;;1.33;94.02
69751;BME280;57335;52.288;6.056;2022-12-04T13:53:00;101843.66;;;1.45;93.29
69751;BME280;57335;52.288;6.056;2022-12-04T13:55:35;101834.50;;;1.29;94.02
69751;BME280;57335;52.288;6.056;2022-12-04T13:58:26;101852.22;;;1.45;93.28
69751;BME280;57335;52.288;6.056;2022-12-04T14:01:21;101834.63;;;1.28;93.83
69751;BME280;57335;52.288;6.056;2022-12-04T14:03:50;101849.19;;;1.29;93.66
69751;BME280;57335;52.288;6.056;2022-12-04T14:06:34;101870.19;;;1.35;94.18
69751;BME280;57335;52.288;6.056;2022-12-04T14:09:04;101855.16;;;1.29;93.60
69751;BME280;57335;52.288;6.056;2022-12-04T14:11:44;101865.84;;;1.36;94.22
69751;BME280;57335;52.288;6.056;2022-12-04T14:14:23;101861.50;;;1.36;93.43
69751;BME280;57335;52.288;6.056;2022-12-04T14:16:51;101864.06;;;1.48;92.55
69751;BME280;57335;52.288;6.056;2022-12-04T14:19:35;101852.09;;;1.35;93.26
69751;BME280;57335;52.288;6.056;2022-12-04T14:22:03;101863.63;;;1.43;93.55
69751;BME280;57335;52.288;6.056;2022-12-04T14:24:37;101845.66;;;1.41;93.26
69751;BME280;57335;52.288;6.056;2022-12-04T14:27:33;101857.00;;;1.50;93.37
69751;BME280;57335;52.288;6.056;2022-12-04T14:30:00;101844.56;;;1.44;92.82